sensor_id;sensor_type;location;lat;lon;timestamp;temperature;humidity
75134;HTU21D;73631;44.326;40.200;2023-11-19T00:00:07;7.81;69.63
75134;HTU21D;73631;44.326;40.200;2023-11-19T00:02:41;7.82;69.67
75134;HTU21D;73631;44.326;40.200;2023-11-19T00:05:08;7.83;69.69
75134;HTU21D;73631;44.326;40.200;2023-11-19T00:07:38;7.82;69.74
75134;HTU21D;73631;44.326;40.200;2023-11-19T00:10:14;7.82;69.77
75134;HTU21D;73631;44.326;40.200;2023-11-19T00:12:42;7.84;69.78
75134;HTU21D;73631;44.326;40.200;2023-11-19T00:15:09;7.85;69.78
75134;HTU21D;73631;44.326;40.200;2023-11-19T00:17:42;7.86;69.77
75134;HTU21D;73631;44.326;40.200;2023-11-19T00:20:12;7.83;69.76
75134;HTU21D;73631;44.326;40.200;2023-11-19T00:22:38;7.82;69.83
75134;HTU21D;73631;44.326;40.200;2023-11-19T00:25:06;7.84;69.87
75134;HTU21D;73631;44.326;40.200;2023-11-19T00:27:32;7.83;69.89
75134;HTU21D;73631;44.326;40.200;2023-11-19T00:29:59;7.84;69.93
75134;HTU21D;73631;44.326;40.200;2023-11-19T00:32:25;7.84;69.91
75134;HTU21D;73631;44.326;40.200;2023-11-19T00:34:52;7.82;69.91
75134;HTU21D;73631;44.326;40.200;2023-11-19T00:37:18;7.83;69.94
75134;HTU21D;73631;44.326;40.200;2023-11-19T00:39:45;7.84;70.00
75134;HTU21D;73631;44.326;40.200;2023-11-19T00:42:12;7.82;70.00
75134;HTU21D;73631;44.326;40.200;2023-11-19T00:44:38;7.84;70.02
75134;HTU21D;73631;44.326;40.200;2023-11-19T00:47:05;7.85;70.04
75134;HTU21D;73631;44.326;40.200;2023-11-19T00:49:31;7.87;70.07
75134;HTU21D;73631;44.326;40.200;2023-11-19T00:52:01;7.87;70.05
75134;HTU21D;73631;44.326;40.200;2023-11-19T00:54:29;7.85;70.00
75134;HTU21D;73631;44.326;40.200;2023-11-19T00:56:55;7.84;70.03
75134;HTU21D;73631;44.326;40.200;2023-11-19T00:59:22;7.84;70.09
75134;HTU21D;73631;44.326;40.200;2023-11-19T01:01:48;7.85;70.16
75134;HTU21D;73631;44.326;40.200;2023-11-19T01:04:15;7.85;70.19
75134;HTU21D;73631;44.326;40.200;2023-11-19T01:06:41;7.88;70.21
75134;HTU21D;73631;44.326;40.200;2023-11-19T01:09:09;7.88;70.24
75134;HTU21D;73631;44.326;40.200;2023-11-19T01:11:35;7.91;70.23
75134;HTU21D;73631;44.326;40.200;2023-11-19T01:14:01;7.93;70.15
75134;HTU21D;73631;44.326;40.200;2023-11-19T01:16:28;7.94;70.14
75134;HTU21D;73631;44.326;40.200;2023-11-19T01:18:55;7.97;70.15
75134;HTU21D;73631;44.326;40.200;2023-11-19T01:21:22;7.99;70.17
75134;HTU21D;73631;44.326;40.200;2023-11-19T01:23:48;8.00;70.16
75134;HTU21D;73631;44.326;40.200;2023-11-19T01:26:15;8.01;70.19
75134;HTU21D;73631;44.326;40.200;2023-11-19T01:28:42;8.03;70.16
75134;HTU21D;73631;44.326;40.200;2023-11-19T01:31:15;8.04;70.20
75134;HTU21D;73631;44.326;40.200;2023-11-19T01:33:42;8.04;70.19
75134;HTU21D;73631;44.326;40.200;2023-11-19T01:36:08;8.04;70.22
75134;HTU21D;73631;44.326;40.200;2023-11-19T01:38:36;8.06;70.23
75134;HTU21D;73631;44.326;40.200;2023-11-19T01:41:03;8.08;70.26
75134;HTU21D;73631;44.326;40.200;2023-11-19T01:43:37;8.09;70.24
75134;HTU21D;73631;44.326;40.200;2023-11-19T01:46:05;8.07;70.24
75134;HTU21D;73631;44.326;40.200;2023-11-19T01:48:33;8.06;70.28
75134;HTU21D;73631;44.326;40.200;2023-11-19T01:51:01;8.06;70.32
75134;HTU21D;73631;44.326;40.200;2023-11-19T01:53:29;8.05;70.35
75134;HTU21D;73631;44.326;40.200;2023-11-19T01:55:56;8.05;70.40
75134;HTU21D;73631;44.326;40.200;2023-11-19T01:58:24;8.05;70.43
75134;HTU21D;73631;44.326;40.200;2023-11-19T02:00:53;8.05;70.42
75134;HTU21D;73631;44.326;40.200;2023-11-19T02:03:20;8.05;70.45
75134;HTU21D;73631;44.326;40.200;2023-11-19T02:05:48;8.06;70.49
75134;HTU21D;73631;44.326;40.200;2023-11-19T02:08:17;8.07;70.47
75134;HTU21D;73631;44.326;40.200;2023-11-19T02:10:43;8.08;70.52
75134;HTU21D;73631;44.326;40.200;2023-11-19T02:13:10;8.06;70.52
75134;HTU21D;73631;44.326;40.200;2023-11-19T02:15:37;8.04;70.48
75134;HTU21D;73631;44.326;40.200;2023-11-19T02:18:19;8.01;70.55
75134;HTU21D;73631;44.326;40.200;2023-11-19T02:20:46;7.99;70.59
75134;HTU21D;73631;44.326;40.200;2023-11-19T02:23:13;7.98;70.64
75134;HTU21D;73631;44.326;40.200;2023-11-19T02:25:40;7.96;70.68
75134;HTU21D;73631;44.326;40.200;2023-11-19T02:28:08;7.93;70.74
75134;HTU21D;73631;44.326;40.200;2023-11-19T02:30:38;7.92;70.79
75134;HTU21D;73631;44.326;40.200;2023-11-19T02:33:04;7.91;70.84
75134;HTU21D;73631;44.326;40.200;2023-11-19T02:35:34;7.90;70.88
75134;HTU21D;73631;44.326;40.200;2023-11-19T02:38:01;7.91;70.93
75134;HTU21D;73631;44.326;40.200;2023-11-19T02:40:30;7.91;70.99
75134;HTU21D;73631;44.326;40.200;2023-11-19T02:42:57;7.94;70.99
75134;HTU21D;73631;44.326;40.200;2023-11-19T02:45:26;7.97;71.00
75134;HTU21D;73631;44.326;40.200;2023-11-19T02:47:52;8.00;70.97
75134;HTU21D;73631;44.326;40.200;2023-11-19T02:50:20;7.99;71.03
75134;HTU21D;73631;44.326;40.200;2023-11-19T02:52:52;7.99;71.00
75134;HTU21D;73631;44.326;40.200;2023-11-19T02:55:20;8.00;71.06
75134;HTU21D;73631;44.326;40.200;2023-11-19T02:57:49;8.00;71.10
75134;HTU21D;73631;44.326;40.200;2023-11-19T03:00:17;8.00;71.12
75134;HTU21D;73631;44.326;40.200;2023-11-19T03:02:45;7.99;71.16
75134;HTU21D;73631;44.326;40.200;2023-11-19T03:05:15;7.98;71.16
75134;HTU21D;73631;44.326;40.200;2023-11-19T03:07:43;7.98;71.16
75134;HTU21D;73631;44.326;40.200;2023-11-19T03:10:10;7.96;71.24
75134;HTU21D;73631;44.326;40.200;2023-11-19T03:12:44;7.96;71.32
75134;HTU21D;73631;44.326;40.200;2023-11-19T03:15:11;7.97;71.32
75134;HTU21D;73631;44.326;40.200;2023-11-19T03:17:41;7.96;71.37
75134;HTU21D;73631;44.326;40.200;2023-11-19T03:20:11;7.94;71.42
75134;HTU21D;73631;44.326;40.200;2023-11-19T03:22:42;7.93;71.35
75134;HTU21D;73631;44.326;40.200;2023-11-19T03:25:10;7.89;71.46
75134;HTU21D;73631;44.326;40.200;2023-11-19T03:27:40;7.89;71.56
75134;HTU21D;73631;44.326;40.200;2023-11-19T03:30:10;7.87;71.63
75134;HTU21D;73631;44.326;40.200;2023-11-19T03:32:37;7.86;71.67
75134;HTU21D;73631;44.326;40.200;2023-11-19T03:35:05;7.87;71.71
75134;HTU21D;73631;44.326;40.200;2023-11-19T03:37:33;7.87;71.76
75134;HTU21D;73631;44.326;40.200;2023-11-19T03:40:02;7.86;71.84
75134;HTU21D;73631;44.326;40.200;2023-11-19T03:42:32;7.87;71.86
75134;HTU21D;73631;44.326;40.200;2023-11-19T03:44:59;7.86;71.87
75134;HTU21D;73631;44.326;40.200;2023-11-19T03:47:27;7.87;71.91
75134;HTU21D;73631;44.326;40.200;2023-11-19T03:49:56;7.86;71.96
75134;HTU21D;73631;44.326;40.200;2023-11-19T03:52:22;7.87;72.00
75134;HTU21D;73631;44.326;40.200;2023-11-19T03:54:49;7.89;72.06
75134;HTU21D;73631;44.326;40.200;2023-11-19T03:57:15;7.91;72.05
75134;HTU21D;73631;44.326;40.200;2023-11-19T03:59:42;7.89;72.11
75134;HTU21D;73631;44.326;40.200;2023-11-19T04:02:08;7.88;72.09
75134;HTU21D;73631;44.326;40.200;2023-11-19T04:04:36;7.89;72.16
75134;HTU21D;73631;44.326;40.200;2023-11-19T04:07:08;7.88;72.19
75134;HTU21D;73631;44.326;40.200;2023-11-19T04:09:38;7.86;72.16
75134;HTU21D;73631;44.326;40.200;2023-11-19T04:12:05;7.83;72.24
75134;HTU21D;73631;44.326;40.200;2023-11-19T04:14:31;7.82;72.36
75134;HTU21D;73631;44.326;40.200;2023-11-19T04:16:58;7.81;72.39
75134;HTU21D;73631;44.326;40.200;2023-11-19T04:19:24;7.81;72.45
75134;HTU21D;73631;44.326;40.200;2023-11-19T04:21:51;7.82;72.51
75134;HTU21D;73631;44.326;40.200;2023-11-19T04:24:18;7.82;72.52
75134;HTU21D;73631;44.326;40.200;2023-11-19T04:26:45;7.81;72.56
75134;HTU21D;73631;44.326;40.200;2023-11-19T04:29:13;7.79;72.61
75134;HTU21D;73631;44.326;40.200;2023-11-19T04:31:41;7.79;72.63
75134;HTU21D;73631;44.326;40.200;2023-11-19T04:34:08;7.81;72.67
75134;HTU21D;73631;44.326;40.200;2023-11-19T04:36:35;7.79;72.73
75134;HTU21D;73631;44.326;40.200;2023-11-19T04:39:03;7.81;72.78
75134;HTU21D;73631;44.326;40.200;2023-11-19T04:41:51;7.82;72.86
75134;HTU21D;73631;44.326;40.200;2023-11-19T04:44:20;7.84;72.86
75134;HTU21D;73631;44.326;40.200;2023-11-19T04:46:47;7.85;72.90
75134;HTU21D;73631;44.326;40.200;2023-11-19T04:49:14;7.86;72.92
75134;HTU21D;73631;44.326;40.200;2023-11-19T04:51:41;7.88;72.98
75134;HTU21D;73631;44.326;40.200;2023-11-19T04:54:10;7.88;72.99
75134;HTU21D;73631;44.326;40.200;2023-11-19T04:56:37;7.88;73.00
75134;HTU21D;73631;44.326;40.200;2023-11-19T04:59:04;7.87;73.06
75134;HTU21D;73631;44.326;40.200;2023-11-19T05:01:33;7.90;73.09
75134;HTU21D;73631;44.326;40.200;2023-11-19T05:04:01;7.91;73.08
75134;HTU21D;73631;44.326;40.200;2023-11-19T05:06:29;7.90;73.14
75134;HTU21D;73631;44.326;40.200;2023-11-19T05:08:59;7.88;73.15
75134;HTU21D;73631;44.326;40.200;2023-11-19T05:11:34;7.87;73.20
75134;HTU21D;73631;44.326;40.200;2023-11-19T05:14:04;7.87;73.31
75134;HTU21D;73631;44.326;40.200;2023-11-19T05:16:31;7.86;73.28
75134;HTU21D;73631;44.326;40.200;2023-11-19T05:18:58;7.85;73.34
75134;HTU21D;73631;44.326;40.200;2023-11-19T05:21:24;7.86;73.38
75134;HTU21D;73631;44.326;40.200;2023-11-19T05:23:50;7.89;73.43
75134;HTU21D;73631;44.326;40.200;2023-11-19T05:26:21;7.91;73.45
75134;HTU21D;73631;44.326;40.200;2023-11-19T05:28:48;7.92;73.47
75134;HTU21D;73631;44.326;40.200;2023-11-19T05:31:16;7.92;73.46
75134;HTU21D;73631;44.326;40.200;2023-11-19T05:33:43;7.93;73.51
75134;HTU21D;73631;44.326;40.200;2023-11-19T05:36:11;7.96;73.54
75134;HTU21D;73631;44.326;40.200;2023-11-19T05:38:38;7.98;73.58
75134;HTU21D;73631;44.326;40.200;2023-11-19T05:41:05;7.99;73.57
75134;HTU21D;73631;44.326;40.200;2023-11-19T05:43:32;8.01;73.57
75134;HTU21D;73631;44.326;40.200;2023-11-19T05:45:58;8.00;73.62
75134;HTU21D;73631;44.326;40.200;2023-11-19T05:48:27;8.02;73.60
75134;HTU21D;73631;44.326;40.200;2023-11-19T05:50:56;8.01;73.63
75134;HTU21D;73631;44.326;40.200;2023-11-19T05:53:23;8.02;73.68
75134;HTU21D;73631;44.326;40.200;2023-11-19T05:55:49;8.03;73.74
75134;HTU21D;73631;44.326;40.200;2023-11-19T05:58:24;8.01;73.61
75134;HTU21D;73631;44.326;40.200;2023-11-19T06:00:56;7.98;73.60
75134;HTU21D;73631;44.326;40.200;2023-11-19T06:03:23;7.97;73.81
75134;HTU21D;73631;44.326;40.200;2023-11-19T06:05:50;7.98;73.93
75134;HTU21D;73631;44.326;40.200;2023-11-19T06:08:17;7.99;73.96
75134;HTU21D;73631;44.326;40.200;2023-11-19T06:10:44;8.02;73.95
75134;HTU21D;73631;44.326;40.200;2023-11-19T06:13:16;8.04;73.96
75134;HTU21D;73631;44.326;40.200;2023-11-19T06:15:43;8.06;74.02
75134;HTU21D;73631;44.326;40.200;2023-11-19T06:18:09;8.09;74.02
75134;HTU21D;73631;44.326;40.200;2023-11-19T06:20:38;8.12;74.02
75134;HTU21D;73631;44.326;40.200;2023-11-19T06:23:05;8.15;74.06
75134;HTU21D;73631;44.326;40.200;2023-11-19T06:25:31;8.17;74.09
75134;HTU21D;73631;44.326;40.200;2023-11-19T06:27:57;8.19;74.10
75134;HTU21D;73631;44.326;40.200;2023-11-19T06:30:24;8.23;74.09
75134;HTU21D;73631;44.326;40.200;2023-11-19T06:32:51;8.26;74.12
75134;HTU21D;73631;44.326;40.200;2023-11-19T06:35:17;8.27;74.12
75134;HTU21D;73631;44.326;40.200;2023-11-19T06:37:44;8.29;74.15
75134;HTU21D;73631;44.326;40.200;2023-11-19T06:40:11;8.30;74.19
75134;HTU21D;73631;44.326;40.200;2023-11-19T06:42:38;8.34;74.22
75134;HTU21D;73631;44.326;40.200;2023-11-19T06:45:25;8.36;74.26
75134;HTU21D;73631;44.326;40.200;2023-11-19T06:47:52;8.36;74.16
75134;HTU21D;73631;44.326;40.200;2023-11-19T06:50:21;8.36;74.31
75134;HTU21D;73631;44.326;40.200;2023-11-19T06:52:53;8.41;74.41
75134;HTU21D;73631;44.326;40.200;2023-11-19T06:55:19;8.44;74.41
75134;HTU21D;73631;44.326;40.200;2023-11-19T06:57:46;8.49;74.47
75134;HTU21D;73631;44.326;40.200;2023-11-19T07:00:12;8.55;74.51
75134;HTU21D;73631;44.326;40.200;2023-11-19T07:02:39;8.59;74.50
75134;HTU21D;73631;44.326;40.200;2023-11-19T07:05:06;8.62;74.45
75134;HTU21D;73631;44.326;40.200;2023-11-19T07:07:34;8.64;74.44
75134;HTU21D;73631;44.326;40.200;2023-11-19T07:10:02;8.68;74.45
75134;HTU21D;73631;44.326;40.200;2023-11-19T07:12:30;8.73;74.47
75134;HTU21D;73631;44.326;40.200;2023-11-19T07:14:57;8.74;74.37
75134;HTU21D;73631;44.326;40.200;2023-11-19T07:17:24;8.73;74.38
75134;HTU21D;73631;44.326;40.200;2023-11-19T07:19:50;8.75;74.42
75134;HTU21D;73631;44.326;40.200;2023-11-19T07:22:17;8.76;74.41
75134;HTU21D;73631;44.326;40.200;2023-11-19T07:24:44;8.78;74.36
75134;HTU21D;73631;44.326;40.200;2023-11-19T07:27:10;8.78;74.45
75134;HTU21D;73631;44.326;40.200;2023-11-19T07:29:37;8.81;74.49
75134;HTU21D;73631;44.326;40.200;2023-11-19T07:32:04;8.82;74.49
75134;HTU21D;73631;44.326;40.200;2023-11-19T07:34:31;8.86;74.49
75134;HTU21D;73631;44.326;40.200;2023-11-19T07:37:13;8.86;74.49
75134;HTU21D;73631;44.326;40.200;2023-11-19T07:39:40;8.85;74.47
75134;HTU21D;73631;44.326;40.200;2023-11-19T07:42:07;8.87;74.53
75134;HTU21D;73631;44.326;40.200;2023-11-19T07:44:33;8.88;74.57
75134;HTU21D;73631;44.326;40.200;2023-11-19T07:47:01;8.90;74.57
75134;HTU21D;73631;44.326;40.200;2023-11-19T07:49:27;8.92;74.64
75134;HTU21D;73631;44.326;40.200;2023-11-19T07:52:03;8.95;74.70
75134;HTU21D;73631;44.326;40.200;2023-11-19T07:54:53;8.96;74.62
75134;HTU21D;73631;44.326;40.200;2023-11-19T07:57:36;9.00;74.82
75134;HTU21D;73631;44.326;40.200;2023-11-19T08:00:30;9.01;74.90
75134;HTU21D;73631;44.326;40.200;2023-11-19T08:03:35;9.05;74.92
75134;HTU21D;73631;44.326;40.200;2023-11-19T08:06:29;9.05;74.71
75134;HTU21D;73631;44.326;40.200;2023-11-19T08:08:56;9.05;74.83
75134;HTU21D;73631;44.326;40.200;2023-11-19T08:11:23;9.06;74.93
75134;HTU21D;73631;44.326;40.200;2023-11-19T08:13:50;9.10;74.93
75134;HTU21D;73631;44.326;40.200;2023-11-19T08:16:17;9.14;74.91
75134;HTU21D;73631;44.326;40.200;2023-11-19T08:18:44;9.15;74.93
75134;HTU21D;73631;44.326;40.200;2023-11-19T08:21:11;9.17;74.98
75134;HTU21D;73631;44.326;40.200;2023-11-19T08:23:37;9.19;74.98
75134;HTU21D;73631;44.326;40.200;2023-11-19T08:26:05;9.22;74.99
75134;HTU21D;73631;44.326;40.200;2023-11-19T08:28:32;9.21;74.96
75134;HTU21D;73631;44.326;40.200;2023-11-19T08:31:01;9.23;74.96
75134;HTU21D;73631;44.326;40.200;2023-11-19T08:33:33;9.24;75.02
75134;HTU21D;73631;44.326;40.200;2023-11-19T08:35:59;9.26;74.97
75134;HTU21D;73631;44.326;40.200;2023-11-19T08:38:27;9.29;75.00
75134;HTU21D;73631;44.326;40.200;2023-11-19T08:41:00;9.31;74.96
75134;HTU21D;73631;44.326;40.200;2023-11-19T08:43:27;9.31;74.89
75134;HTU21D;73631;44.326;40.200;2023-11-19T08:45:53;9.32;74.93
75134;HTU21D;73631;44.326;40.200;2023-11-19T08:48:21;9.33;74.97
75134;HTU21D;73631;44.326;40.200;2023-11-19T08:50:55;9.35;75.02
75134;HTU21D;73631;44.326;40.200;2023-11-19T08:53:24;9.34;74.99
75134;HTU21D;73631;44.326;40.200;2023-11-19T08:55:51;9.36;74.97
75134;HTU21D;73631;44.326;40.200;2023-11-19T08:58:19;9.35;74.96
75134;HTU21D;73631;44.326;40.200;2023-11-19T09:00:48;9.37;75.02
75134;HTU21D;73631;44.326;40.200;2023-11-19T09:03:14;9.37;75.06
75134;HTU21D;73631;44.326;40.200;2023-11-19T09:05:41;9.39;75.11
75134;HTU21D;73631;44.326;40.200;2023-11-19T09:08:12;9.44;75.18
75134;HTU21D;73631;44.326;40.200;2023-11-19T09:10:49;9.45;75.10
75134;HTU21D;73631;44.326;40.200;2023-11-19T09:13:16;9.47;75.18
75134;HTU21D;73631;44.326;40.200;2023-11-19T09:15:43;9.50;75.17
75134;HTU21D;73631;44.326;40.200;2023-11-19T09:18:15;9.53;75.23
75134;HTU21D;73631;44.326;40.200;2023-11-19T09:20:46;9.57;75.22
75134;HTU21D;73631;44.326;40.200;2023-11-19T09:23:16;9.60;75.17
75134;HTU21D;73631;44.326;40.200;2023-11-19T09:25:43;9.64;75.23
75134;HTU21D;73631;44.326;40.200;2023-11-19T09:28:11;9.68;75.26
75134;HTU21D;73631;44.326;40.200;2023-11-19T09:30:37;9.70;75.16
75134;HTU21D;73631;44.326;40.200;2023-11-19T09:33:05;9.74;75.25
75134;HTU21D;73631;44.326;40.200;2023-11-19T09:35:37;9.77;75.26
75134;HTU21D;73631;44.326;40.200;2023-11-19T09:38:05;9.80;75.18
75134;HTU21D;73631;44.326;40.200;2023-11-19T09:40:32;9.85;75.25
75134;HTU21D;73631;44.326;40.200;2023-11-19T09:42:58;9.91;75.27
75134;HTU21D;73631;44.326;40.200;2023-11-19T09:45:27;9.97;75.21
75134;HTU21D;73631;44.326;40.200;2023-11-19T09:47:55;10.06;75.18
75134;HTU21D;73631;44.326;40.200;2023-11-19T09:50:24;10.13;75.09
75134;HTU21D;73631;44.326;40.200;2023-11-19T09:52:51;10.20;75.00
75134;HTU21D;73631;44.326;40.200;2023-11-19T09:55:22;10.27;74.95
75134;HTU21D;73631;44.326;40.200;2023-11-19T09:57:50;10.30;74.78
75134;HTU21D;73631;44.326;40.200;2023-11-19T10:00:19;10.35;74.71
75134;HTU21D;73631;44.326;40.200;2023-11-19T10:02:48;10.39;74.71
75134;HTU21D;73631;44.326;40.200;2023-11-19T10:05:16;10.40;74.70
75134;HTU21D;73631;44.326;40.200;2023-11-19T10:07:43;10.44;74.67
75134;HTU21D;73631;44.326;40.200;2023-11-19T10:10:13;10.46;74.67
75134;HTU21D;73631;44.326;40.200;2023-11-19T10:12:45;10.50;74.64
75134;HTU21D;73631;44.326;40.200;2023-11-19T10:15:21;10.51;74.69
75134;HTU21D;73631;44.326;40.200;2023-11-19T10:17:51;10.54;74.66
75134;HTU21D;73631;44.326;40.200;2023-11-19T10:20:18;10.55;74.67
75134;HTU21D;73631;44.326;40.200;2023-11-19T10:22:45;10.60;74.63
75134;HTU21D;73631;44.326;40.200;2023-11-19T10:25:28;10.62;74.70
75134;HTU21D;73631;44.326;40.200;2023-11-19T10:27:56;10.63;74.56
75134;HTU21D;73631;44.326;40.200;2023-11-19T10:30:30;10.66;74.60
75134;HTU21D;73631;44.326;40.200;2023-11-19T10:33:14;10.67;74.64
75134;HTU21D;73631;44.326;40.200;2023-11-19T10:35:54;10.70;74.69
75134;HTU21D;73631;44.326;40.200;2023-11-19T10:38:21;10.72;74.67
75134;HTU21D;73631;44.326;40.200;2023-11-19T10:40:51;10.77;74.75
75134;HTU21D;73631;44.326;40.200;2023-11-19T10:43:19;10.82;74.79
75134;HTU21D;73631;44.326;40.200;2023-11-19T10:45:46;10.87;74.73
75134;HTU21D;73631;44.326;40.200;2023-11-19T10:48:22;10.93;74.70
75134;HTU21D;73631;44.326;40.200;2023-11-19T10:50:53;10.96;74.61
75134;HTU21D;73631;44.326;40.200;2023-11-19T10:53:23;10.98;74.54
75134;HTU21D;73631;44.326;40.200;2023-11-19T10:55:56;11.01;74.51
75134;HTU21D;73631;44.326;40.200;2023-11-19T10:58:25;11.02;74.51
75134;HTU21D;73631;44.326;40.200;2023-11-19T11:01:02;11.04;74.50
75134;HTU21D;73631;44.326;40.200;2023-11-19T11:03:35;11.05;74.54
75134;HTU21D;73631;44.326;40.200;2023-11-19T11:06:18;11.08;74.54
75134;HTU21D;73631;44.326;40.200;2023-11-19T11:08:46;11.11;74.50
75134;HTU21D;73631;44.326;40.200;2023-11-19T11:11:15;11.13;74.47
75134;HTU21D;73631;44.326;40.200;2023-11-19T11:13:50;11.16;74.45
75134;HTU21D;73631;44.326;40.200;2023-11-19T11:16:20;11.16;74.38
75134;HTU21D;73631;44.326;40.200;2023-11-19T11:18:49;11.20;74.37
75134;HTU21D;73631;44.326;40.200;2023-11-19T11:21:21;11.23;74.35
75134;HTU21D;73631;44.326;40.200;2023-11-19T11:29:46;11.22;74.28
75134;HTU21D;73631;44.326;40.200;2023-11-19T11:32:45;11.23;74.27
75134;HTU21D;73631;44.326;40.200;2023-11-19T11:35:33;11.22;74.15
75134;HTU21D;73631;44.326;40.200;2023-11-19T11:38:08;11.20;74.18
75134;HTU21D;73631;44.326;40.200;2023-11-19T11:40:37;11.23;74.18
75134;HTU21D;73631;44.326;40.200;2023-11-19T11:43:45;11.24;74.31
75134;HTU21D;73631;44.326;40.200;2023-11-19T11:49:07;11.18;73.99
75134;HTU21D;73631;44.326;40.200;2023-11-19T11:54:27;11.10;74.28
75134;HTU21D;73631;44.326;40.200;2023-11-19T12:02:13;11.12;74.31
75134;HTU21D;73631;44.326;40.200;2023-11-19T12:04:42;11.12;74.22
75134;HTU21D;73631;44.326;40.200;2023-11-19T12:07:21;11.13;74.29
75134;HTU21D;73631;44.326;40.200;2023-11-19T12:10:15;11.13;74.21
75134;HTU21D;73631;44.326;40.200;2023-11-19T12:12:42;11.13;74.16
75134;HTU21D;73631;44.326;40.200;2023-11-19T12:15:12;11.11;74.15
75134;HTU21D;73631;44.326;40.200;2023-11-19T12:17:49;11.10;74.19
75134;HTU21D;73631;44.326;40.200;2023-11-19T12:20:18;11.10;74.18
75134;HTU21D;73631;44.326;40.200;2023-11-19T12:22:46;11.08;74.18
75134;HTU21D;73631;44.326;40.200;2023-11-19T12:25:16;11.09;74.26
75134;HTU21D;73631;44.326;40.200;2023-11-19T12:27:48;11.10;74.29
75134;HTU21D;73631;44.326;40.200;2023-11-19T12:30:32;11.08;74.35
75134;HTU21D;73631;44.326;40.200;2023-11-19T12:32:59;11.07;74.30
75134;HTU21D;73631;44.326;40.200;2023-11-19T12:35:26;11.04;74.36
75134;HTU21D;73631;44.326;40.200;2023-11-19T12:37:53;11.02;74.43
75134;HTU21D;73631;44.326;40.200;2023-11-19T12:40:24;11.03;74.47
75134;HTU21D;73631;44.326;40.200;2023-11-19T12:43:00;11.02;74.60
75134;HTU21D;73631;44.326;40.200;2023-11-19T12:45:44;11.01;74.64
75134;HTU21D;73631;44.326;40.200;2023-11-19T12:48:24;10.99;74.59
75134;HTU21D;73631;44.326;40.200;2023-11-19T12:50:59;10.98;74.63
75134;HTU21D;73631;44.326;40.200;2023-11-19T12:53:48;10.97;74.82
75134;HTU21D;73631;44.326;40.200;2023-11-19T12:56:22;10.97;74.71
75134;HTU21D;73631;44.326;40.200;2023-11-19T12:58:52;10.96;74.82
75134;HTU21D;73631;44.326;40.200;2023-11-19T13:01:23;10.96;74.87
75134;HTU21D;73631;44.326;40.200;2023-11-19T13:03:52;10.97;74.92
75134;HTU21D;73631;44.326;40.200;2023-11-19T13:06:22;10.97;74.90
75134;HTU21D;73631;44.326;40.200;2023-11-19T13:08:51;10.97;74.95
75134;HTU21D;73631;44.326;40.200;2023-11-19T13:11:36;10.97;75.09
75134;HTU21D;73631;44.326;40.200;2023-11-19T13:14:05;10.96;75.01
75134;HTU21D;73631;44.326;40.200;2023-11-19T13:16:37;10.95;75.07
75134;HTU21D;73631;44.326;40.200;2023-11-19T13:19:06;10.95;75.14
75134;HTU21D;73631;44.326;40.200;2023-11-19T13:21:39;10.95;75.15
75134;HTU21D;73631;44.326;40.200;2023-11-19T13:24:14;10.94;75.16
75134;HTU21D;73631;44.326;40.200;2023-11-19T13:26:45;10.92;75.18
75134;HTU21D;73631;44.326;40.200;2023-11-19T13:29:15;10.92;75.25
75134;HTU21D;73631;44.326;40.200;2023-11-19T13:31:48;10.90;75.32
75134;HTU21D;73631;44.326;40.200;2023-11-19T13:34:15;10.89;75.37
75134;HTU21D;73631;44.326;40.200;2023-11-19T13:36:42;10.90;75.40
75134;HTU21D;73631;44.326;40.200;2023-11-19T13:39:10;10.90;75.44
75134;HTU21D;73631;44.326;40.200;2023-11-19T13:41:38;10.88;75.46
75134;HTU21D;73631;44.326;40.200;2023-11-19T13:44:11;10.88;75.52
75134;HTU21D;73631;44.326;40.200;2023-11-19T13:46:38;10.88;75.54
75134;HTU21D;73631;44.326;40.200;2023-11-19T13:49:05;10.87;75.56
75134;HTU21D;73631;44.326;40.200;2023-11-19T13:51:32;10.87;75.60
75134;HTU21D;73631;44.326;40.200;2023-11-19T13:54:01;10.86;75.64
75134;HTU21D;73631;44.326;40.200;2023-11-19T13:56:32;10.86;75.68
75134;HTU21D;73631;44.326;40.200;2023-11-19T13:59:04;10.84;75.71
75134;HTU21D;73631;44.326;40.200;2023-11-19T14:01:32;10.83;75.74
75134;HTU21D;73631;44.326;40.200;2023-11-19T14:04:07;10.82;75.80
75134;HTU21D;73631;44.326;40.200;2023-11-19T14:06:49;10.79;75.79
75134;HTU21D;73631;44.326;40.200;2023-11-19T14:09:25;10.78;75.82
75134;HTU21D;73631;44.326;40.200;2023-11-19T14:11:55;10.77;75.85
75134;HTU21D;73631;44.326;40.200;2023-11-19T14:14:21;10.74;75.89
75134;HTU21D;73631;44.326;40.200;2023-11-19T14:16:48;10.72;75.93
75134;HTU21D;73631;44.326;40.200;2023-11-19T14:19:16;10.72;75.98
75134;HTU21D;73631;44.326;40.200;2023-11-19T14:21:43;10.71;75.99
75134;HTU21D;73631;44.326;40.200;2023-11-19T14:24:11;10.68;76.04
75134;HTU21D;73631;44.326;40.200;2023-11-19T14:26:42;10.68;76.04
75134;HTU21D;73631;44.326;40.200;2023-11-19T14:29:09;10.67;76.06
75134;HTU21D;73631;44.326;40.200;2023-11-19T14:31:39;10.68;76.09
75134;HTU21D;73631;44.326;40.200;2023-11-19T14:34:14;10.66;76.08
75134;HTU21D;73631;44.326;40.200;2023-11-19T14:36:43;10.64;76.13
75134;HTU21D;73631;44.326;40.200;2023-11-19T14:39:11;10.62;76.12
75134;HTU21D;73631;44.326;40.200;2023-11-19T14:41:42;10.57;76.15
75134;HTU21D;73631;44.326;40.200;2023-11-19T14:44:10;10.57;76.19
75134;HTU21D;73631;44.326;40.200;2023-11-19T14:46:39;10.54;76.24
75134;HTU21D;73631;44.326;40.200;2023-11-19T14:49:06;10.52;76.23
75134;HTU21D;73631;44.326;40.200;2023-11-19T14:51:39;10.49;76.27
75134;HTU21D;73631;44.326;40.200;2023-11-19T14:54:07;10.46;76.31
75134;HTU21D;73631;44.326;40.200;2023-11-19T14:56:40;10.44;76.37
75134;HTU21D;73631;44.326;40.200;2023-11-19T14:59:10;10.43;76.41
75134;HTU21D;73631;44.326;40.200;2023-11-19T15:01:37;10.41;76.46
75134;HTU21D;73631;44.326;40.200;2023-11-19T15:04:07;10.41;76.53
75134;HTU21D;73631;44.326;40.200;2023-11-19T15:06:44;10.40;76.53
75134;HTU21D;73631;44.326;40.200;2023-11-19T15:09:14;10.40;76.53
75134;HTU21D;73631;44.326;40.200;2023-11-19T15:11:46;10.39;76.58
75134;HTU21D;73631;44.326;40.200;2023-11-19T15:14:16;10.38;76.63
75134;HTU21D;73631;44.326;40.200;2023-11-19T15:16:46;10.36;76.65
75134;HTU21D;73631;44.326;40.200;2023-11-19T15:19:13;10.36;76.66
75134;HTU21D;73631;44.326;40.200;2023-11-19T15:21:44;10.36;76.67
75134;HTU21D;73631;44.326;40.200;2023-11-19T15:24:10;10.34;76.70
75134;HTU21D;73631;44.326;40.200;2023-11-19T15:26:37;10.36;76.73
75134;HTU21D;73631;44.326;40.200;2023-11-19T15:29:05;10.34;76.76
75134;HTU21D;73631;44.326;40.200;2023-11-19T15:31:33;10.36;76.74
75134;HTU21D;73631;44.326;40.200;2023-11-19T15:34:00;10.34;76.76
75134;HTU21D;73631;44.326;40.200;2023-11-19T15:36:35;10.35;76.77
75134;HTU21D;73631;44.326;40.200;2023-11-19T15:39:03;10.34;76.76
75134;HTU21D;73631;44.326;40.200;2023-11-19T15:41:38;10.31;76.81